sensor_id;sensor_type;location;lat;lon;timestamp;P1;durP1;ratioP1;P2;durP2;ratioP2
40793;SDS011;26502;51.886;15.604;2023-05-10T00:01:24;7.70;;;4.70;;
40793;SDS011;26502;51.886;15.604;2023-05-10T00:06:30;8.30;;;4.40;;
40793;SDS011;26502;51.886;15.604;2023-05-10T00:11:36;8.00;;;4.50;;
40793;SDS011;26502;51.886;15.604;2023-05-10T00:16:42;9.20;;;4.50;;
40793;SDS011;26502;51.886;15.604;2023-05-10T00:21:49;5.90;;;4.00;;
40793;SDS011;26502;51.886;15.604;2023-05-10T00:26:55;6.50;;;3.90;;
40793;SDS011;26502;51.886;15.604;2023-05-10T00:32:00;5.70;;;4.30;;
40793;SDS011;26502;51.886;15.604;2023-05-10T00:37:07;5.00;;;4.10;;
40793;SDS011;26502;51.886;15.604;2023-05-10T00:42:13;8.80;;;4.10;;
40793;SDS011;26502;51.886;15.604;2023-05-10T00:47:19;7.30;;;4.30;;
40793;SDS011;26502;51.886;15.604;2023-05-10T00:52:26;5.30;;;3.80;;
40793;SDS011;26502;51.886;15.604;2023-05-10T00:57:36;6.50;;;3.90;;
40793;SDS011;26502;51.886;15.604;2023-05-10T01:02:42;6.70;;;4.30;;
40793;SDS011;26502;51.886;15.604;2023-05-10T01:07:49;6.50;;;4.30;;
40793;SDS011;26502;51.886;15.604;2023-05-10T01:12:55;5.80;;;4.50;;
40793;SDS011;26502;51.886;15.604;2023-05-10T01:18:03;5.00;;;3.80;;
40793;SDS011;26502;51.886;15.604;2023-05-10T01:23:23;8.10;;;4.10;;
40793;SDS011;26502;51.886;15.604;2023-05-10T01:28:51;6.00;;;4.50;;
40793;SDS011;26502;51.886;15.604;2023-05-10T01:34:17;9.70;;;4.70;;
40793;SDS011;26502;51.886;15.604;2023-05-10T01:39:32;10.20;;;4.00;;
40793;SDS011;26502;51.886;15.604;2023-05-10T01:44:46;6.20;;;4.10;;
40793;SDS011;26502;51.886;15.604;2023-05-10T01:50:01;4.90;;;4.30;;
40793;SDS011;26502;51.886;15.604;2023-05-10T01:55:11;6.30;;;4.00;;
40793;SDS011;26502;51.886;15.604;2023-05-10T02:05:27;10.30;;;4.80;;
40793;SDS011;26502;51.886;15.604;2023-05-10T02:10:36;6.60;;;4.20;;
40793;SDS011;26502;51.886;15.604;2023-05-10T02:15:44;7.40;;;4.50;;
40793;SDS011;26502;51.886;15.604;2023-05-10T02:20:53;8.50;;;5.10;;
40793;SDS011;26502;51.886;15.604;2023-05-10T02:26:00;7.60;;;4.50;;
40793;SDS011;26502;51.886;15.604;2023-05-10T02:31:08;10.10;;;5.20;;
40793;SDS011;26502;51.886;15.604;2023-05-10T02:36:15;7.70;;;4.20;;
40793;SDS011;26502;51.886;15.604;2023-05-10T02:41:25;13.70;;;4.70;;
40793;SDS011;26502;51.886;15.604;2023-05-10T02:46:32;8.00;;;4.80;;
40793;SDS011;26502;51.886;15.604;2023-05-10T02:51:40;7.60;;;4.30;;
40793;SDS011;26502;51.886;15.604;2023-05-10T02:56:52;7.40;;;4.70;;
40793;SDS011;26502;51.886;15.604;2023-05-10T03:02:01;5.70;;;4.40;;
40793;SDS011;26502;51.886;15.604;2023-05-10T03:07:08;6.30;;;4.80;;
40793;SDS011;26502;51.886;15.604;2023-05-10T03:12:15;6.90;;;4.60;;
40793;SDS011;26502;51.886;15.604;2023-05-10T03:17:35;10.60;;;5.30;;
40793;SDS011;26502;51.886;15.604;2023-05-10T03:22:53;8.40;;;4.60;;
40793;SDS011;26502;51.886;15.604;2023-05-10T03:28:08;8.20;;;4.90;;
40793;SDS011;26502;51.886;15.604;2023-05-10T03:33:16;7.60;;;4.80;;
40793;SDS011;26502;51.886;15.604;2023-05-10T03:38:22;8.40;;;5.20;;
40793;SDS011;26502;51.886;15.604;2023-05-10T03:43:29;8.00;;;5.00;;
40793;SDS011;26502;51.886;15.604;2023-05-10T03:48:35;6.20;;;4.50;;
40793;SDS011;26502;51.886;15.604;2023-05-10T03:53:41;9.90;;;5.10;;
40793;SDS011;26502;51.886;15.604;2023-05-10T03:58:47;9.00;;;5.30;;
40793;SDS011;26502;51.886;15.604;2023-05-10T04:03:54;12.20;;;5.40;;
40793;SDS011;26502;51.886;15.604;2023-05-10T04:09:00;7.60;;;5.00;;
40793;SDS011;26502;51.886;15.604;2023-05-10T04:14:07;7.80;;;5.70;;
40793;SDS011;26502;51.886;15.604;2023-05-10T04:19:13;6.00;;;4.90;;
40793;SDS011;26502;51.886;15.604;2023-05-10T04:24:19;8.70;;;5.00;;
40793;SDS011;26502;51.886;15.604;2023-05-10T04:29:25;5.80;;;4.70;;
40793;SDS011;26502;51.886;15.604;2023-05-10T04:34:31;8.20;;;5.10;;
40793;SDS011;26502;51.886;15.604;2023-05-10T04:39:38;8.90;;;5.40;;
40793;SDS011;26502;51.886;15.604;2023-05-10T04:44:44;7.90;;;4.40;;
40793;SDS011;26502;51.886;15.604;2023-05-10T04:49:50;9.00;;;5.00;;
40793;SDS011;26502;51.886;15.604;2023-05-10T04:54:56;9.00;;;5.20;;
40793;SDS011;26502;51.886;15.604;2023-05-10T05:00:02;5.90;;;4.10;;
40793;SDS011;26502;51.886;15.604;2023-05-10T05:05:09;6.30;;;4.60;;
40793;SDS011;26502;51.886;15.604;2023-05-10T05:10:15;8.60;;;4.80;;
40793;SDS011;26502;51.886;15.604;2023-05-10T05:15:21;6.70;;;4.50;;
40793;SDS011;26502;51.886;15.604;2023-05-10T05:20:27;7.40;;;4.20;;
40793;SDS011;26502;51.886;15.604;2023-05-10T05:25:35;5.60;;;4.40;;
40793;SDS011;26502;51.886;15.604;2023-05-10T05:30:41;8.60;;;4.60;;
40793;SDS011;26502;51.886;15.604;2023-05-10T05:35:47;9.40;;;4.80;;
40793;SDS011;26502;51.886;15.604;2023-05-10T05:40:54;6.80;;;4.50;;
40793;SDS011;26502;51.886;15.604;2023-05-10T05:46:00;7.80;;;4.20;;
40793;SDS011;26502;51.886;15.604;2023-05-10T05:51:06;10.40;;;4.30;;
40793;SDS011;26502;51.886;15.604;2023-05-10T05:56:12;6.60;;;4.80;;
40793;SDS011;26502;51.886;15.604;2023-05-10T06:01:18;6.20;;;4.30;;
40793;SDS011;26502;51.886;15.604;2023-05-10T06:06:24;7.20;;;4.00;;
40793;SDS011;26502;51.886;15.604;2023-05-10T06:11:30;12.00;;;4.30;;
40793;SDS011;26502;51.886;15.604;2023-05-10T06:16:36;4.50;;;3.70;;
40793;SDS011;26502;51.886;15.604;2023-05-10T06:21:42;10.10;;;3.90;;
40793;SDS011;26502;51.886;15.604;2023-05-10T06:26:48;8.10;;;4.00;;
40793;SDS011;26502;51.886;15.604;2023-05-10T06:31:54;4.90;;;3.40;;
40793;SDS011;26502;51.886;15.604;2023-05-10T06:37:00;5.90;;;4.20;;
40793;SDS011;26502;51.886;15.604;2023-05-10T06:42:06;6.70;;;3.80;;
40793;SDS011;26502;51.886;15.604;2023-05-10T06:47:12;6.10;;;3.50;;
40793;SDS011;26502;51.886;15.604;2023-05-10T06:52:18;5.40;;;4.00;;
40793;SDS011;26502;51.886;15.604;2023-05-10T06:57:24;8.00;;;4.20;;
40793;SDS011;26502;51.886;15.604;2023-05-10T07:02:30;7.20;;;4.00;;
40793;SDS011;26502;51.886;15.604;2023-05-10T07:07:36;5.00;;;3.60;;
40793;SDS011;26502;51.886;15.604;2023-05-10T07:12:42;8.90;;;4.00;;
40793;SDS011;26502;51.886;15.604;2023-05-10T07:17:48;8.50;;;3.70;;
40793;SDS011;26502;51.886;15.604;2023-05-10T07:22:55;6.20;;;3.50;;
40793;SDS011;26502;51.886;15.604;2023-05-10T07:28:00;10.70;;;3.70;;
40793;SDS011;26502;51.886;15.604;2023-05-10T07:33:07;6.30;;;3.30;;
40793;SDS011;26502;51.886;15.604;2023-05-10T07:38:14;4.90;;;3.60;;
40793;SDS011;26502;51.886;15.604;2023-05-10T07:43:20;5.60;;;3.30;;
40793;SDS011;26502;51.886;15.604;2023-05-10T07:48:26;5.80;;;3.40;;
40793;SDS011;26502;51.886;15.604;2023-05-10T07:53:32;4.30;;;3.40;;
40793;SDS011;26502;51.886;15.604;2023-05-10T07:58:38;7.10;;;3.40;;
40793;SDS011;26502;51.886;15.604;2023-05-10T08:03:44;4.60;;;3.00;;
40793;SDS011;26502;51.886;15.604;2023-05-10T08:08:50;6.30;;;2.80;;
40793;SDS011;26502;51.886;15.604;2023-05-10T08:13:57;8.10;;;3.00;;
40793;SDS011;26502;51.886;15.604;2023-05-10T08:19:02;6.70;;;3.50;;
40793;SDS011;26502;51.886;15.604;2023-05-10T08:24:08;6.30;;;2.70;;
40793;SDS011;26502;51.886;15.604;2023-05-10T08:29:14;6.10;;;2.70;;
40793;SDS011;26502;51.886;15.604;2023-05-10T08:34:20;5.90;;;2.50;;
40793;SDS011;26502;51.886;15.604;2023-05-10T08:39:26;8.70;;;3.30;;
40793;SDS011;26502;51.886;15.604;2023-05-10T08:44:33;4.00;;;2.60;;
40793;SDS011;26502;51.886;15.604;2023-05-10T08:49:40;6.90;;;2.90;;
40793;SDS011;26502;51.886;15.604;2023-05-10T08:54:47;3.60;;;2.50;;
40793;SDS011;26502;51.886;15.604;2023-05-10T08:59:54;3.90;;;2.60;;
40793;SDS011;26502;51.886;15.604;2023-05-10T09:05:00;9.40;;;2.80;;
40793;SDS011;26502;51.886;15.604;2023-05-10T09:10:08;4.80;;;2.20;;
40793;SDS011;26502;51.886;15.604;2023-05-10T09:15:15;6.90;;;2.40;;
40793;SDS011;26502;51.886;15.604;2023-05-10T09:20:22;8.90;;;2.50;;
40793;SDS011;26502;51.886;15.604;2023-05-10T09:25:29;4.70;;;2.80;;
40793;SDS011;26502;51.886;15.604;2023-05-10T09:30:36;5.60;;;2.60;;
40793;SDS011;26502;51.886;15.604;2023-05-10T09:35:42;6.50;;;2.60;;
40793;SDS011;26502;51.886;15.604;2023-05-10T09:40:51;9.00;;;2.20;;
40793;SDS011;26502;51.886;15.604;2023-05-10T09:45:58;6.30;;;2.40;;
40793;SDS011;26502;51.886;15.604;2023-05-10T09:51:16;9.60;;;2.50;;
40793;SDS011;26502;51.886;15.604;2023-05-10T09:56:34;6.00;;;2.70;;
40793;SDS011;26502;51.886;15.604;2023-05-10T10:01:42;5.40;;;2.50;;
40793;SDS011;26502;51.886;15.604;2023-05-10T10:07:04;4.40;;;2.10;;
40793;SDS011;26502;51.886;15.604;2023-05-10T10:12:10;7.40;;;2.30;;
40793;SDS011;26502;51.886;15.604;2023-05-10T10:17:17;6.80;;;2.40;;
40793;SDS011;26502;51.886;15.604;2023-05-10T10:22:24;5.00;;;2.30;;
40793;SDS011;26502;51.886;15.604;2023-05-10T10:27:33;4.40;;;2.50;;
40793;SDS011;26502;51.886;15.604;2023-05-10T10:32:53;7.20;;;2.60;;
40793;SDS011;26502;51.886;15.604;2023-05-10T10:38:22;8.60;;;2.30;;
40793;SDS011;26502;51.886;15.604;2023-05-10T10:43:28;12.30;;;2.70;;
40793;SDS011;26502;51.886;15.604;2023-05-10T10:48:34;6.00;;;3.00;;
40793;SDS011;26502;51.886;15.604;2023-05-10T10:53:41;4.50;;;2.50;;
40793;SDS011;26502;51.886;15.604;2023-05-10T10:58:50;5.20;;;2.50;;
40793;SDS011;26502;51.886;15.604;2023-05-10T11:04:16;5.70;;;2.60;;
40793;SDS011;26502;51.886;15.604;2023-05-10T11:09:24;3.70;;;2.10;;
40793;SDS011;26502;51.886;15.604;2023-05-10T11:14:30;3.20;;;2.40;;
40793;SDS011;26502;51.886;15.604;2023-05-10T11:19:37;5.80;;;2.00;;
40793;SDS011;26502;51.886;15.604;2023-05-10T11:25:04;4.40;;;2.20;;
40793;SDS011;26502;51.886;15.604;2023-05-10T11:30:13;4.60;;;2.00;;
40793;SDS011;26502;51.886;15.604;2023-05-10T11:35:19;6.80;;;2.30;;
40793;SDS011;26502;51.886;15.604;2023-05-10T11:40:25;10.30;;;2.20;;
40793;SDS011;26502;51.886;15.604;2023-05-10T11:45:32;8.10;;;2.50;;
40793;SDS011;26502;51.886;15.604;2023-05-10T11:50:40;6.30;;;2.40;;
40793;SDS011;26502;51.886;15.604;2023-05-10T11:55:48;6.00;;;2.20;;
40793;SDS011;26502;51.886;15.604;2023-05-10T12:00:54;2.90;;;2.00;;
40793;SDS011;26502;51.886;15.604;2023-05-10T12:06:01;6.10;;;1.90;;
40793;SDS011;26502;51.886;15.604;2023-05-10T12:11:08;5.40;;;2.50;;
40793;SDS011;26502;51.886;15.604;2023-05-10T12:16:14;6.70;;;1.80;;
40793;SDS011;26502;51.886;15.604;2023-05-10T12:21:22;11.40;;;2.10;;
40793;SDS011;26502;51.886;15.604;2023-05-10T12:26:28;3.60;;;1.90;;
40793;SDS011;26502;51.886;15.604;2023-05-10T12:31:43;7.10;;;2.20;;
40793;SDS011;26502;51.886;15.604;2023-05-10T12:36:54;7.80;;;2.10;;
40793;SDS011;26502;51.886;15.604;2023-05-10T12:42:01;3.90;;;2.20;;
40793;SDS011;26502;51.886;15.604;2023-05-10T12:47:07;10.90;;;2.30;;
40793;SDS011;26502;51.886;15.604;2023-05-10T12:52:13;8.80;;;2.00;;
40793;SDS011;26502;51.886;15.604;2023-05-10T12:57:19;11.60;;;2.40;;
40793;SDS011;26502;51.886;15.604;2023-05-10T13:02:26;5.10;;;2.10;;
40793;SDS011;26502;51.886;15.604;2023-05-10T13:07:32;3.40;;;2.10;;
40793;SDS011;26502;51.886;15.604;2023-05-10T13:12:38;9.20;;;2.30;;
40793;SDS011;26502;51.886;15.604;2023-05-10T13:17:44;29.60;;;2.80;;
40793;SDS011;26502;51.886;15.604;2023-05-10T13:22:50;10.60;;;2.40;;
40793;SDS011;26502;51.886;15.604;2023-05-10T13:27:56;7.50;;;2.40;;
40793;SDS011;26502;51.886;15.604;2023-05-10T13:33:02;8.80;;;2.30;;
40793;SDS011;26502;51.886;15.604;2023-05-10T13:38:08;6.10;;;2.30;;
40793;SDS011;26502;51.886;15.604;2023-05-10T13:43:14;5.70;;;2.30;;
40793;SDS011;26502;51.886;15.604;2023-05-10T13:48:20;11.20;;;2.10;;
40793;SDS011;26502;51.886;15.604;2023-05-10T13:53:26;7.50;;;1.90;;
40793;SDS011;26502;51.886;15.604;2023-05-10T13:58:32;4.50;;;2.00;;
40793;SDS011;26502;51.886;15.604;2023-05-10T14:03:39;14.80;;;2.10;;
40793;SDS011;26502;51.886;15.604;2023-05-10T14:08:45;7.10;;;2.20;;
40793;SDS011;26502;51.886;15.604;2023-05-10T14:13:51;6.70;;;2.20;;
40793;SDS011;26502;51.886;15.604;2023-05-10T14:18:57;15.20;;;2.00;;
40793;SDS011;26502;51.886;15.604;2023-05-10T14:24:03;5.90;;;2.10;;
40793;SDS011;26502;51.886;15.604;2023-05-10T14:29:09;7.10;;;2.20;;
40793;SDS011;26502;51.886;15.604;2023-05-10T14:34:16;3.50;;;2.20;;
40793;SDS011;26502;51.886;15.604;2023-05-10T14:39:22;4.00;;;2.40;;
40793;SDS011;26502;51.886;15.604;2023-05-10T14:44:28;4.60;;;2.00;;
40793;SDS011;26502;51.886;15.604;2023-05-10T14:49:34;4.40;;;2.10;;
40793;SDS011;26502;51.886;15.604;2023-05-10T14:54:40;5.00;;;1.80;;
40793;SDS011;26502;51.886;15.604;2023-05-10T14:59:46;10.30;;;1.90;;
40793;SDS011;26502;51.886;15.604;2023-05-10T15:04:52;8.80;;;1.60;;
40793;SDS011;26502;51.886;15.604;2023-05-10T15:09:58;2.50;;;1.90;;
40793;SDS011;26502;51.886;15.604;2023-05-10T15:15:05;6.20;;;1.80;;
40793;SDS011;26502;51.886;15.604;2023-05-10T15:20:12;4.80;;;1.80;;
40793;SDS011;26502;51.886;15.604;2023-05-10T15:25:18;2.90;;;1.60;;
40793;SDS011;26502;51.886;15.604;2023-05-10T15:30:24;2.80;;;1.90;;
40793;SDS011;26502;51.886;15.604;2023-05-10T15:35:31;9.20;;;1.80;;
40793;SDS011;26502;51.886;15.604;2023-05-10T15:45:42;2.30;;;1.70;;
40793;SDS011;26502;51.886;15.604;2023-05-10T15:50:49;5.50;;;1.80;;
40793;SDS011;26502;51.886;15.604;2023-05-10T15:55:55;4.00;;;1.60;;
40793;SDS011;26502;51.886;15.604;2023-05-10T16:01:01;3.40;;;1.80;;
40793;SDS011;26502;51.886;15.604;2023-05-10T16:06:07;8.30;;;1.80;;
40793;SDS011;26502;51.886;15.604;2023-05-10T16:11:13;6.30;;;1.60;;
40793;SDS011;26502;51.886;15.604;2023-05-10T16:16:19;4.50;;;1.70;;
40793;SDS011;26502;51.886;15.604;2023-05-10T16:21:25;18.00;;;2.30;;
40793;SDS011;26502;51.886;15.604;2023-05-10T16:31:42;4.60;;;1.50;;
40793;SDS011;26502;51.886;15.604;2023-05-10T16:36:48;4.80;;;2.00;;
40793;SDS011;26502;51.886;15.604;2023-05-10T16:41:54;4.60;;;1.30;;
40793;SDS011;26502;51.886;15.604;2023-05-10T16:47:00;3.80;;;1.80;;
40793;SDS011;26502;51.886;15.604;2023-05-10T16:52:06;11.40;;;1.80;;
40793;SDS011;26502;51.886;15.604;2023-05-10T16:57:12;3.50;;;1.60;;
40793;SDS011;26502;51.886;15.604;2023-05-10T17:02:18;3.20;;;1.40;;
40793;SDS011;26502;51.886;15.604;2023-05-10T17:07:25;4.80;;;1.50;;
40793;SDS011;26502;51.886;15.604;2023-05-10T17:12:32;5.10;;;1.50;;
40793;SDS011;26502;51.886;15.604;2023-05-10T17:17:38;3.80;;;1.60;;
40793;SDS011;26502;51.886;15.604;2023-05-10T17:22:44;2.00;;;1.50;;
40793;SDS011;26502;51.886;15.604;2023-05-10T17:27:50;5.30;;;1.70;;
40793;SDS011;26502;51.886;15.604;2023-05-10T17:32:55;2.80;;;1.50;;
40793;SDS011;26502;51.886;15.604;2023-05-10T17:38:02;2.10;;;1.70;;
40793;SDS011;26502;51.886;15.604;2023-05-10T17:43:08;3.50;;;1.80;;
40793;SDS011;26502;51.886;15.604;2023-05-10T17:48:14;6.00;;;1.90;;
40793;SDS011;26502;51.886;15.604;2023-05-10T17:53:20;4.30;;;1.80;;
40793;SDS011;26502;51.886;15.604;2023-05-10T17:58:26;7.60;;;1.80;;
40793;SDS011;26502;51.886;15.604;2023-05-10T18:03:32;8.20;;;1.80;;
40793;SDS011;26502;51.886;15.604;2023-05-10T18:08:39;2.40;;;1.80;;
40793;SDS011;26502;51.886;15.604;2023-05-10T18:13:44;5.40;;;1.80;;
40793;SDS011;26502;51.886;15.604;2023-05-10T18:18:51;2.90;;;1.70;;
40793;SDS011;26502;51.886;15.604;2023-05-10T18:23:57;9.70;;;2.40;;
40793;SDS011;26502;51.886;15.604;2023-05-10T18:29:03;5.80;;;2.00;;
40793;SDS011;26502;51.886;15.604;2023-05-10T18:34:09;2.80;;;2.30;;
40793;SDS011;26502;51.886;15.604;2023-05-10T18:39:15;4.30;;;2.70;;
40793;SDS011;26502;51.886;15.604;2023-05-10T18:44:21;4.70;;;2.30;;
40793;SDS011;26502;51.886;15.604;2023-05-10T18:49:28;4.10;;;2.70;;
40793;SDS011;26502;51.886;15.604;2023-05-10T18:54:34;7.10;;;3.30;;
40793;SDS011;26502;51.886;15.604;2023-05-10T18:59:40;7.60;;;3.00;;
40793;SDS011;26502;51.886;15.604;2023-05-10T19:04:46;6.00;;;3.10;;
40793;SDS011;26502;51.886;15.604;2023-05-10T19:09:53;7.70;;;3.40;;
40793;SDS011;26502;51.886;15.604;2023-05-10T19:14:59;6.40;;;3.40;;
40793;SDS011;26502;51.886;15.604;2023-05-10T19:20:05;5.50;;;3.30;;
40793;SDS011;26502;51.886;15.604;2023-05-10T19:25:12;7.40;;;3.80;;
40793;SDS011;26502;51.886;15.604;2023-05-10T19:30:18;5.30;;;3.40;;
40793;SDS011;26502;51.886;15.604;2023-05-10T19:35:24;7.00;;;3.50;;
40793;SDS011;26502;51.886;15.604;2023-05-10T19:40:30;9.80;;;3.90;;
40793;SDS011;26502;51.886;15.604;2023-05-10T19:45:37;7.30;;;3.40;;
40793;SDS011;26502;51.886;15.604;2023-05-10T19:50:43;6.90;;;3.40;;
40793;SDS011;26502;51.886;15.604;2023-05-10T19:55:48;6.10;;;3.10;;
40793;SDS011;26502;51.886;15.604;2023-05-10T20:00:55;5.20;;;3.00;;
40793;SDS011;26502;51.886;15.604;2023-05-10T20:06:01;6.30;;;2.90;;
40793;SDS011;26502;51.886;15.604;2023-05-10T20:11:07;6.60;;;2.90;;
40793;SDS011;26502;51.886;15.604;2023-05-10T20:16:13;4.80;;;2.70;;
40793;SDS011;26502;51.886;15.604;2023-05-10T20:21:20;6.10;;;3.20;;
40793;SDS011;26502;51.886;15.604;2023-05-10T20:26:26;6.50;;;3.00;;
40793;SDS011;26502;51.886;15.604;2023-05-10T20:31:32;7.20;;;3.20;;
40793;SDS011;26502;51.886;15.604;2023-05-10T20:36:38;8.20;;;3.40;;
40793;SDS011;26502;51.886;15.604;2023-05-10T20:41:44;6.60;;;3.60;;
40793;SDS011;26502;51.886;15.604;2023-05-10T20:46:51;6.00;;;3.60;;
40793;SDS011;26502;51.886;15.604;2023-05-10T20:51:57;6.00;;;3.40;;
40793;SDS011;26502;51.886;15.604;2023-05-10T20:57:04;5.30;;;3.70;;
40793;SDS011;26502;51.886;15.604;2023-05-10T21:02:10;4.30;;;3.20;;
40793;SDS011;26502;51.886;15.604;2023-05-10T21:07:17;7.20;;;3.00;;
40793;SDS011;26502;51.886;15.604;2023-05-10T21:12:23;4.00;;;3.30;;
40793;SDS011;26502;51.886;15.604;2023-05-10T21:17:29;7.30;;;3.50;;
40793;SDS011;26502;51.886;15.604;2023-05-10T21:22:36;4.80;;;3.20;;
40793;SDS011;26502;51.886;15.604;2023-05-10T21:27:42;6.50;;;4.00;;
40793;SDS011;26502;51.886;15.604;2023-05-10T21:32:49;5.30;;;3.90;;
40793;SDS011;26502;51.886;15.604;2023-05-10T21:37:56;5.50;;;3.40;;
40793;SDS011;26502;51.886;15.604;2023-05-10T21:43:03;6.60;;;3.60;;
40793;SDS011;26502;51.886;15.604;2023-05-10T21:48:09;6.00;;;3.70;;
40793;SDS011;26502;51.886;15.604;2023-05-10T21:53:15;4.80;;;3.40;;
40793;SDS011;26502;51.886;15.604;2023-05-10T21:58:21;7.10;;;4.20;;
40793;SDS011;26502;51.886;15.604;2023-05-10T22:03:28;4.90;;;3.30;;
40793;SDS011;26502;51.886;15.604;2023-05-10T22:08:34;4.50;;;3.40;;
40793;SDS011;26502;51.886;15.604;2023-05-10T22:13:41;7.80;;;3.80;;
40793;SDS011;26502;51.886;15.604;2023-05-10T22:18:47;6.10;;;3.40;;
40793;SDS011;26502;51.886;15.604;2023-05-10T22:23:53;7.10;;;3.60;;
40793;SDS011;26502;51.886;15.604;2023-05-10T22:28:59;5.20;;;3.50;;
40793;SDS011;26502;51.886;15.604;2023-05-10T22:34:05;4.30;;;3.90;;
40793;SDS011;26502;51.886;15.604;2023-05-10T22:39:11;8.70;;;3.90;;
40793;SDS011;26502;51.886;15.604;2023-05-10T22:44:17;4.80;;;4.10;;
40793;SDS011;26502;51.886;15.604;2023-05-10T22:49:24;4.00;;;3.40;;
40793;SDS011;26502;51.886;15.604;2023-05-10T22:54:30;4.50;;;3.60;;
40793;SDS011;26502;51.886;15.604;2023-05-10T22:59:36;5.80;;;3.80;;
40793;SDS011;26502;51.886;15.604;2023-05-10T23:04:41;5.70;;;3.80;;
40793;SDS011;26502;51.886;15.604;2023-05-10T23:09:47;6.10;;;3.40;;
40793;SDS011;26502;51.886;15.604;2023-05-10T23:14:53;17.10;;;4.30;;
40793;SDS011;26502;51.886;15.604;2023-05-10T23:19:59;4.60;;;3.70;;
40793;SDS011;26502;51.886;15.604;2023-05-10T23:25:06;5.00;;;3.90;;
40793;SDS011;26502;51.886;15.604;2023-05-10T23:30:13;5.50;;;4.00;;
40793;SDS011;26502;51.886;15.604;2023-05-10T23:35:19;5.90;;;3.90;;
40793;SDS011;26502;51.886;15.604;2023-05-10T23:40:25;5.90;;;4.20;;
40793;SDS011;26502;51.886;15.604;2023-05-10T23:45:32;7.10;;;3.90;;
40793;SDS011;26502;51.886;15.604;2023-05-10T23:50:42;5.50;;;4.00;;
40793;SDS011;26502;51.886;15.604;2023-05-10T23:55:48;6.00;;;4.00;;
